Upland, Indiana
Current Conditions -  °F | °C
As of 2:15 PM on Monday 22 Dec 2014 (Local Time) from KMZZ Reporting Station
Overcast Overcast  
Wind Chill: 33°   Ceiling: 900
Heat Index: 38°   Visibility: 10mi
Dew Point: 33°   Wind: 7mph
Humidity: 80%   Direction: 120°ESE
Pressure: 29.84"   Gusts: NA
Location:  40.48°N, 85.49°W
Report Text: KMZZ 221915Z AUTO 12006KT 10SM OVC009 04/00 A2984 RMK AO2 T00350004
Loading
Personal Weather Stations






























Interactive Weather Map New forecast layout! Learn more

10-Day Weather Forecast

Advertisements
Track Severe Weather on mobile